Time,TemperatureF,DewpointF,PressureIn,WindDirection,WindDirectionDegrees,WindSpeedMPH,WindSpeedGustMPH,Humidity,HourlyPrecipIn,Conditions,Clouds,dailyrainin,SoftwareType,DateUTC
2013-02-03 00:00:00,18.9,17.0,30.03,SSE,152,0.0,0.0,92,0.00,,,0.00,VWS V14.01,2013-02-03 05:00:00,
2013-02-03 00:01:00,18.9,17.0,30.03,SSE,152,0.0,0.0,92,0.00,,,0.00,VWS V14.01,2013-02-03 05:01:00,
2013-02-03 00:02:00,18.9,17.0,30.03,SSE,153,0.0,0.0,92,0.00,,,0.00,VWS V14.01,2013-02-03 05:02:00,
2013-02-03 00:07:00,18.8,16.9,30.02,SSE,152,0.0,0.0,92,0.00,,,0.00,VWS V14.01,2013-02-03 05:07:00,
2013-02-03 00:12:00,18.8,16.9,30.02,SSE,152,0.0,0.0,92,0.00,,,0.00,VWS V14.01,2013-02-03 05:12:00,
2013-02-03 00:17:00,18.9,17.0,30.02,SE,142,0.0,0.0,92,0.00,,,0.00,VWS V14.01,2013-02-03 05:17:00,
2013-02-03 00:22:00,18.9,17.0,30.02,SE,141,0.0,0.0,92,0.00,,,0.00,VWS V14.01,2013-02-03 05:22:00,
2013-02-03 00:27:00,18.9,17.0,30.02,SE,141,0.0,0.0,92,0.00,,,0.00,VWS V14.01,2013-02-03 05:27:00,
2013-02-03 00:32:00,18.9,17.0,30.02,SE,141,0.0,0.0,92,0.00,,,0.00,VWS V14.01,2013-02-03 05:32:00,
2013-02-03 00:37:00,18.9,17.0,30.01,SE,138,0.0,0.0,92,0.00,,,0.00,VWS V14.01,2013-02-03 05:37:00,
2013-02-03 00:42:00,18.9,17.0,30.01,SE,141,0.0,0.0,92,0.00,,,0.00,VWS V14.01,2013-02-03 05:42:00,
2013-02-03 00:47:00,18.9,17.0,30.01,SE,141,0.0,0.0,92,0.00,,,0.00,VWS V14.01,2013-02-03 05:47:00,
2013-02-03 00:52:00,18.8,16.9,30.01,SE,141,0.0,0.0,92,0.00,,,0.00,VWS V14.01,2013-02-03 05:52:00,
2013-02-03 00:57:00,18.8,16.9,30.00,SE,141,0.0,0.0,92,0.00,,,0.00,VWS V14.01,2013-02-03 05:57:00,
2013-02-03 01:02:00,18.8,16.9,30.00,SE,141,0.0,0.0,92,0.00,,,0.00,VWS V14.01,2013-02-03 06:02:00,
2013-02-03 01:07:00,18.8,16.9,30.00,SE,132,0.0,0.0,92,0.00,,,0.00,VWS V14.01,2013-02-03 06:07:00,
2013-02-03 01:12:00,18.7,16.8,30.00,SE,132,0.0,0.0,92,0.00,,,0.00,VWS V14.01,2013-02-03 06:12:00,
2013-02-03 01:17:00,18.5,16.6,30.00,SE,132,0.0,0.0,92,0.00,,,0.00,VWS V14.01,2013-02-03 06:17:00,
2013-02-03 01:22:00,18.4,16.5,30.00,SE,131,0.0,0.0,92,0.00,,,0.00,VWS V14.01,2013-02-03 06:22:00,
2013-02-03 01:27:00,18.2,16.3,30.00,SE,131,0.0,0.0,92,0.00,,,0.00,VWS V14.01,2013-02-03 06:27:00,
2013-02-03 01:32:00,18.0,16.1,29.99,SE,131,0.0,0.0,92,0.00,,,0.00,VWS V14.01,2013-02-03 06:32:00,
2013-02-03 01:37:00,17.9,16.0,29.99,SE,132,0.0,0.0,92,0.00,,,0.00,VWS V14.01,2013-02-03 06:37:00,
2013-02-03 01:42:00,17.8,15.9,29.99,SE,132,0.0,0.0,92,0.00,,,0.00,VWS V14.01,2013-02-03 06:42:00,
2013-02-03 01:47:00,17.7,15.8,29.99,SE,131,0.0,0.0,92,0.00,,,0.00,VWS V14.01,2013-02-03 06:47:00,
2013-02-03 01:52:00,17.5,15.8,29.99,SE,131,0.0,0.0,93,0.00,,,0.00,VWS V14.01,2013-02-03 06:52:00,
2013-02-03 01:57:00,17.5,15.8,29.99,SE,131,0.0,0.0,93,0.00,,,0.00,VWS V14.01,2013-02-03 06:57:00,
2013-02-03 02:02:00,17.2,15.5,29.99,SE,131,0.0,0.0,93,0.00,,,0.00,VWS V14.01,2013-02-03 07:02:00,
2013-02-03 02:07:00,17.2,15.5,29.99,SE,131,0.0,0.0,93,0.00,,,0.00,VWS V14.01,2013-02-03 07:07:00,
2013-02-03 02:12:00,17.2,15.5,29.99,SE,131,0.0,0.0,93,0.00,,,0.00,VWS V14.01,2013-02-03 07:12:00,
2013-02-03 02:17:00,17.2,15.5,29.98,SE,131,0.0,0.0,93,0.00,,,0.00,VWS V14.01,2013-02-03 07:17:00,
2013-02-03 02:22:00,17.2,15.5,29.98,SE,131,0.0,0.0,93,0.00,,,0.00,VWS V14.01,2013-02-03 07:22:00,
2013-02-03 02:27:00,17.1,15.4,29.98,SE,131,0.0,0.0,93,0.00,,,0.00,VWS V14.01,2013-02-03 07:27:00,
2013-02-03 02:32:00,17.0,15.3,29.98,SE,132,0.0,0.0,93,0.00,,,0.00,VWS V14.01,2013-02-03 07:32:00,
2013-02-03 02:37:00,16.9,15.2,29.98,SE,132,0.0,0.0,93,0.00,,,0.00,VWS V14.01,2013-02-03 07:37:00,
2013-02-03 02:42:00,16.7,15.0,29.98,SE,132,0.0,0.0,93,0.00,,,0.00,VWS V14.01,2013-02-03 07:42:00,
2013-02-03 02:47:00,16.6,14.9,29.97,SE,132,0.0,0.0,93,0.00,,,0.00,VWS V14.01,2013-02-03 07:47:00,
2013-02-03 02:52:00,16.4,14.7,29.97,SE,132,0.0,0.0,93,0.00,,,0.00,VWS V14.01,2013-02-03 07:52:00,
2013-02-03 02:57:00,16.4,14.7,29.97,SE,132,0.0,0.0,93,0.00,,,0.00,VWS V14.01,2013-02-03 07:57:00,
2013-02-03 03:01:00,16.4,14.7,29.96,SE,132,0.0,0.0,93,0.00,,,0.00,VWS V14.01,2013-02-03 08:01:00,
2013-02-03 03:06:00,16.4,14.7,29.96,SE,132,0.0,0.0,93,0.00,,,0.00,VWS V14.01,2013-02-03 08:06:00,
2013-02-03 03:11:00,16.5,15.1,29.96,SE,132,0.0,0.0,94,0.00,,,0.00,VWS V14.01,2013-02-03 08:11:00,
2013-02-03 03:16:00,16.6,15.2,29.95,SE,132,0.0,0.0,94,0.00,,,0.00,VWS V14.01,2013-02-03 08:16:00,
2013-02-03 03:21:00,16.5,15.1,29.95,SE,131,0.0,0.0,94,0.00,,,0.00,VWS V14.01,2013-02-03 08:21:00,
2013-02-03 03:26:00,16.6,15.2,29.95,SE,131,0.0,0.0,94,0.00,,,0.00,VWS V14.01,2013-02-03 08:26:00,
2013-02-03 03:31:00,16.6,15.2,29.95,SE,131,0.0,0.0,94,0.00,,,0.00,VWS V14.01,2013-02-03 08:31:00,
2013-02-03 03:36:00,16.5,14.8,29.95,SE,131,0.0,0.0,93,0.00,,,0.00,VWS V14.01,2013-02-03 08:36:00,
2013-02-03 03:41:00,16.5,14.8,29.95,SE,131,0.0,0.0,93,0.00,,,0.00,VWS V14.01,2013-02-03 08:41:00,
2013-02-03 03:46:00,16.4,14.7,29.94,SE,132,0.0,0.0,93,0.00,,,0.00,VWS V14.01,2013-02-03 08:46:00,
2013-02-03 03:51:00,16.4,14.7,29.94,SE,133,0.0,0.0,93,0.00,,,0.00,VWS V14.01,2013-02-03 08:51:00,
2013-02-03 03:56:00,16.4,14.7,29.94,SE,133,0.0,0.0,93,0.00,,,0.00,VWS V14.01,2013-02-03 08:56:00,
2013-02-03 04:01:00,16.5,14.8,29.94,SE,132,0.0,0.0,93,0.00,,,0.00,VWS V14.01,2013-02-03 09:01:00,
2013-02-03 04:06:00,16.5,14.8,29.94,SE,132,0.0,0.0,93,0.00,,,0.00,VWS V14.01,2013-02-03 09:06:00,
2013-02-03 04:11:00,16.6,14.9,29.94,SE,133,0.0,0.0,93,0.00,,,0.00,VWS V14.01,2013-02-03 09:11:00,
2013-02-03 04:16:00,16.7,15.0,29.93,SE,133,0.0,0.0,93,0.00,,,0.00,VWS V14.01,2013-02-03 09:16:00,
2013-02-03 04:21:00,17.0,15.3,29.93,SE,131,0.0,0.0,93,0.00,,,0.00,VWS V14.01,2013-02-03 09:21:00,
2013-02-03 04:26:00,17.2,15.8,29.93,SE,131,0.0,0.0,94,0.00,,,0.00,VWS V14.01,2013-02-03 09:26:00,
2013-02-03 04:31:00,17.3,15.6,29.93,SE,131,0.0,0.0,93,0.00,,,0.00,VWS V14.01,2013-02-03 09:31:00,
2013-02-03 04:36:00,17.4,15.7,29.93,SE,131,0.0,0.0,93,0.00,,,0.00,VWS V14.01,2013-02-03 09:36:00,
2013-02-03 04:41:00,17.4,15.7,29.93,SE,131,0.0,0.0,93,0.00,,,0.00,VWS V14.01,2013-02-03 09:41:00,
2013-02-03 04:46:00,17.4,15.7,29.93,SE,131,0.0,0.0,93,0.00,,,0.00,VWS V14.01,2013-02-03 09:46:00,
2013-02-03 04:51:00,17.4,15.7,29.93,SE,131,0.0,0.0,93,0.00,,,0.00,VWS V14.01,2013-02-03 09:51:00,
2013-02-03 04:56:00,17.5,15.8,29.92,SE,131,0.0,0.0,93,0.00,,,0.00,VWS V14.01,2013-02-03 09:56:00,
2013-02-03 05:01:00,17.5,15.8,29.92,SE,131,0.0,0.0,93,0.00,,,0.00,VWS V14.01,2013-02-03 10:01:00,
2013-02-03 05:06:00,17.5,15.8,29.92,NE,52,0.0,0.0,93,0.00,,,0.00,VWS V14.01,2013-02-03 10:06:00,
2013-02-03 05:11:00,17.6,15.9,29.92,NE,53,0.0,0.0,93,0.00,,,0.00,VWS V14.01,2013-02-03 10:11:00,
2013-02-03 05:16:00,17.7,16.0,29.92,NE,52,0.0,0.0,93,0.00,,,0.00,VWS V14.01,2013-02-03 10:16:00,
2013-02-03 05:21:00,17.7,16.0,29.92,North,11,0.0,1.0,93,0.00,,,0.00,VWS V14.01,2013-02-03 10:21:00,
2013-02-03 05:26:00,17.7,16.0,29.92,North,11,0.0,1.0,93,0.00,,,0.00,VWS V14.01,2013-02-03 10:26:00,
2013-02-03 05:31:00,17.8,16.1,29.92,North,6,2.0,2.0,93,0.00,,,0.00,VWS V14.01,2013-02-03 10:31:00,
2013-02-03 05:36:00,17.7,16.0,29.92,NNE,15,0.0,2.0,93,0.00,,,0.00,VWS V14.01,2013-02-03 10:36:00,
2013-02-03 05:41:00,17.7,16.0,29.92,NNE,16,0.0,2.0,93,0.00,,,0.00,VWS V14.01,2013-02-03 10:41:00,
2013-02-03 05:46:00,17.6,15.9,29.92,NNE,16,0.0,0.0,93,0.00,,,0.00,VWS V14.01,2013-02-03 10:46:00,
2013-02-03 05:51:00,17.6,15.9,29.92,NNE,15,0.0,0.0,93,0.00,,,0.00,VWS V14.01,2013-02-03 10:51:00,
2013-02-03 05:56:00,17.7,16.0,29.92,NE,46,0.0,1.0,93,0.00,,,0.00,VWS V14.01,2013-02-03 10:56:00,
2013-02-03 06:01:00,17.7,16.0,29.92,ENE,66,1.0,2.0,93,0.00,,,0.00,VWS V14.01,2013-02-03 11:01:00,
2013-02-03 06:06:00,17.6,15.9,29.92,ENE,67,0.0,2.0,93,0.00,,,0.00,VWS V14.01,2013-02-03 11:06:00,
2013-02-03 06:11:00,17.6,15.9,29.92,ENE,66,0.0,2.0,93,0.00,,,0.00,VWS V14.01,2013-02-03 11:11:00,
2013-02-03 06:16:00,17.6,15.9,29.92,ENE,66,0.0,0.0,93,0.00,,,0.00,VWS V14.01,2013-02-03 11:16:00,
2013-02-03 06:21:00,17.6,15.9,29.92,ENE,67,0.0,0.0,93,0.00,,,0.00,VWS V14.01,2013-02-03 11:21:00,
2013-02-03 06:26:00,17.6,15.9,29.92,ENE,66,0.0,0.0,93,0.00,,,0.00,VWS V14.01,2013-02-03 11:26:00,
2013-02-03 06:31:00,17.5,15.8,29.92,ENE,67,0.0,0.0,93,0.00,,,0.00,VWS V14.01,2013-02-03 11:31:00,
2013-02-03 06:36:00,17.4,15.7,29.92,NNE,20,1.0,2.0,93,0.00,,,0.00,VWS V14.01,2013-02-03 11:36:00,
2013-02-03 06:41:00,17.3,15.6,29.92,NNE,18,0.0,2.0,93,0.00,,,0.00,VWS V14.01,2013-02-03 11:41:00,
2013-02-03 06:46:00,17.1,15.4,29.92,NE,54,0.0,0.0,93,0.00,,,0.00,VWS V14.01,2013-02-03 11:46:00,
2013-02-03 06:51:00,17.1,15.4,29.92,ENE,63,0.0,0.0,93,0.00,,,0.00,VWS V14.01,2013-02-03 11:51:00,
2013-02-03 06:56:00,16.9,15.2,29.92,ENE,63,0.0,0.0,93,0.00,,,0.00,VWS V14.01,2013-02-03 11:56:00,
2013-02-03 07:01:00,16.7,15.0,29.93,ENE,63,0.0,0.0,93,0.00,,,0.00,VWS V14.01,2013-02-03 12:01:00,
2013-02-03 07:06:00,16.5,14.8,29.93,ENE,64,0.0,0.0,93,0.00,,,0.00,VWS V14.01,2013-02-03 12:06:00,
2013-02-03 07:11:00,16.4,14.7,29.93,ENE,63,0.0,0.0,93,0.00,,,0.00,VWS V14.01,2013-02-03 12:11:00,
2013-02-03 07:16:00,16.3,14.6,29.93,ENE,63,0.0,0.0,93,0.00,,,0.00,VWS V14.01,2013-02-03 12:16:00,
2013-02-03 07:21:00,16.1,14.4,29.93,ENE,64,0.0,0.0,93,0.00,,,0.00,VWS V14.01,2013-02-03 12:21:00,
2013-02-03 07:26:00,16.2,14.5,29.93,ENE,70,0.0,0.0,93,0.00,,,0.00,VWS V14.01,2013-02-03 12:26:00,
2013-02-03 07:31:00,16.2,14.5,29.93,ENE,71,0.0,0.0,93,0.00,,,0.00,VWS V14.01,2013-02-03 12:31:00,
2013-02-03 07:36:00,16.3,14.6,29.93,ENE,70,0.0,0.0,93,0.00,,,0.00,VWS V14.01,2013-02-03 12:36:00,
2013-02-03 07:41:00,16.4,14.7,29.93,East,98,0.0,0.0,93,0.00,,,0.00,VWS V14.01,2013-02-03 12:41:00,
2013-02-03 07:46:00,16.4,14.7,29.93,East,101,0.0,0.0,93,0.00,,,0.00,VWS V14.01,2013-02-03 12:46:00,
2013-02-03 07:51:00,16.5,14.8,29.93,ESE,107,0.0,0.0,93,0.00,,,0.00,VWS V14.01,2013-02-03 12:51:00,
2013-02-03 07:56:00,16.6,14.9,29.93,ESE,121,2.0,3.0,93,0.00,,,0.00,VWS V14.01,2013-02-03 12:56:00,
2013-02-03 08:02:00,16.7,15.0,29.93,SSE,148,1.0,4.0,93,0.00,,,0.00,VWS V14.01,2013-02-03 13:02:00,
2013-02-03 08:07:00,16.7,15.0,29.94,SE,145,0.0,4.0,93,0.00,,,0.00,VWS V14.01,2013-02-03 13:07:00,
2013-02-03 08:12:00,16.9,15.2,29.94,East,96,2.0,4.0,93,0.00,,,0.00,VWS V14.01,2013-02-03 13:12:00,
2013-02-03 08:17:00,17.1,15.4,29.94,SSE,159,1.0,3.0,93,0.00,,,0.00,VWS V14.01,2013-02-03 13:17:00,
2013-02-03 08:21:00,17.3,15.6,29.94,SSE,163,3.0,4.0,93,0.00,,,0.00,VWS V14.01,2013-02-03 13:21:00,
2013-02-03 08:26:00,17.4,15.7,29.94,SE,136,1.0,5.0,93,0.00,,,0.00,VWS V14.01,2013-02-03 13:26:00,
2013-02-03 08:31:00,17.6,15.9,29.94,SE,146,3.0,5.0,93,0.00,,,0.00,VWS V14.01,2013-02-03 13:31:00,
2013-02-03 08:37:00,17.5,15.6,29.94,ESE,113,2.0,5.0,92,0.00,,,0.00,VWS V14.01,2013-02-03 13:37:00,
2013-02-03 08:41:00,17.8,16.1,29.94,ESE,108,2.0,5.0,93,0.00,,,0.00,VWS V14.01,2013-02-03 13:41:00,
2013-02-03 08:46:00,18.0,16.3,29.93,SE,125,4.0,5.0,93,0.00,,,0.00,VWS V14.01,2013-02-03 13:46:00,
2013-02-03 08:51:00,18.3,16.6,29.93,SE,131,0.0,5.0,93,0.00,,,0.00,VWS V14.01,2013-02-03 13:51:00,
2013-02-03 08:56:00,18.3,16.4,29.93,ENE,75,4.0,5.0,92,0.00,,,0.00,VWS V14.01,2013-02-03 13:56:00,
2013-02-03 09:01:00,18.2,16.3,29.93,ESE,117,1.0,2.0,92,0.00,,,0.00,VWS V14.01,2013-02-03 14:01:00,
2013-02-03 09:06:00,18.6,16.7,29.93,ESE,113,2.0,3.0,92,0.00,,,0.00,VWS V14.01,2013-02-03 14:06:00,
2013-02-03 09:11:00,18.9,17.0,29.93,ESE,113,0.0,3.0,92,0.00,,,0.00,VWS V14.01,2013-02-03 14:11:00,
2013-02-03 09:16:00,19.1,16.9,29.93,ESE,121,3.0,3.0,91,0.00,,,0.00,VWS V14.01,2013-02-03 14:16:00,
2013-02-03 09:21:00,19.4,17.2,29.93,SSE,152,3.0,3.0,91,0.00,,,0.00,VWS V14.01,2013-02-03 14:21:00,
2013-02-03 09:26:00,19.4,17.2,29.93,ESE,115,2.0,4.0,91,0.00,,,0.00,VWS V14.01,2013-02-03 14:26:00,
2013-02-03 09:31:00,19.2,16.8,29.93,ESE,110,4.0,4.0,90,0.00,,,0.00,VWS V14.01,2013-02-03 14:31:00,
2013-02-03 09:36:00,19.3,16.9,29.93,SSE,158,3.0,5.0,90,0.00,,,0.00,VWS V14.01,2013-02-03 14:36:00,
2013-02-03 09:41:00,19.3,16.6,29.93,ESE,106,1.0,5.0,89,0.00,,,0.00,VWS V14.01,2013-02-03 14:41:00,
2013-02-03 09:46:00,19.3,16.9,29.93,ESE,104,2.0,3.0,90,0.00,,,0.00,VWS V14.01,2013-02-03 14:46:00,
2013-02-03 09:51:00,19.1,16.7,29.93,ESE,120,0.0,3.0,90,0.00,,,0.00,VWS V14.01,2013-02-03 14:51:00,
2013-02-03 09:56:00,19.2,16.8,29.93,SE,137,2.0,3.0,90,0.00,,,0.00,VWS V14.01,2013-02-03 14:56:00,
2013-02-03 10:01:00,19.3,16.9,29.92,East,93,1.0,3.0,90,0.00,,,0.00,VWS V14.01,2013-02-03 15:01:00,
2013-02-03 10:06:00,19.4,16.7,29.92,SSE,148,0.0,4.0,89,0.00,,,0.00,VWS V14.01,2013-02-03 15:06:00,
2013-02-03 10:11:00,19.7,17.0,29.91,SE,141,1.0,4.0,89,0.00,,,0.00,VWS V14.01,2013-02-03 15:11:00,
2013-02-03 10:16:00,19.7,17.0,29.92,ENE,78,2.0,2.0,89,0.00,,,0.00,VWS V14.01,2013-02-03 15:16:00,
2013-02-03 10:21:00,19.8,17.1,29.92,ENE,70,0.0,3.0,89,0.00,,,0.00,VWS V14.01,2013-02-03 15:21:00,
2013-02-03 10:26:00,20.5,17.8,29.91,SE,128,0.0,3.0,89,0.00,,,0.00,VWS V14.01,2013-02-03 15:26:00,
2013-02-03 10:31:00,21.2,17.9,29.91,SSE,160,1.0,2.0,87,0.00,,,0.00,VWS V14.01,2013-02-03 15:31:00,
2013-02-03 10:36:00,21.3,17.8,29.91,SE,128,0.0,4.0,86,0.00,,,0.00,VWS V14.01,2013-02-03 15:36:00,
2013-02-03 10:41:00,21.1,17.3,29.91,ENE,68,0.0,4.0,85,0.00,,,0.00,VWS V14.01,2013-02-03 15:41:00,
2013-02-03 10:46:00,20.8,17.3,29.91,ESE,117,0.0,0.0,86,0.00,,,0.00,VWS V14.01,2013-02-03 15:46:00,
2013-02-03 10:51:00,21.7,18.2,29.91,South,169,0.0,0.0,86,0.00,,,0.00,VWS V14.01,2013-02-03 15:51:00,
2013-02-03 10:56:00,22.8,18.7,29.90,SW,232,0.0,3.0,84,0.00,,,0.00,VWS V14.01,2013-02-03 15:56:00,
2013-02-03 11:01:00,23.0,18.0,29.90,SSW,198,0.0,1.0,81,0.00,,,0.00,VWS V14.01,2013-02-03 16:01:00,
2013-02-03 11:06:00,22.8,17.9,29.90,ESE,112,1.0,3.0,81,0.00,,,0.00,VWS V14.01,2013-02-03 16:06:00,
2013-02-03 11:11:00,21.9,17.0,29.90,ENE,58,1.0,3.0,81,0.00,,,0.00,VWS V14.01,2013-02-03 16:11:00,
2013-02-03 11:16:00,22.2,17.5,29.90,ESE,106,2.0,2.0,82,0.00,,,0.00,VWS V14.01,2013-02-03 16:16:00,
2013-02-03 11:21:00,21.9,17.3,29.89,SSE,152,0.0,4.0,82,0.00,,,0.00,VWS V14.01,2013-02-03 16:21:00,
2013-02-03 11:26:00,22.2,17.5,29.89,NE,41,0.0,4.0,82,0.00,,,0.00,VWS V14.01,2013-02-03 16:26:00,
2013-02-03 11:31:00,22.3,17.4,29.89,ESE,105,0.0,2.0,81,0.00,,,0.00,VWS V14.01,2013-02-03 16:31:00,
2013-02-03 11:36:00,21.9,17.0,29.88,East,79,1.0,2.0,81,0.00,,,0.00,VWS V14.01,2013-02-03 16:36:00,
2013-02-03 11:41:00,22.0,17.4,29.88,SSE,162,0.0,2.0,82,0.00,,,0.00,VWS V14.01,2013-02-03 16:41:00,
2013-02-03 11:46:00,22.3,17.4,29.87,ENE,72,1.0,2.0,81,0.00,,,0.00,VWS V14.01,2013-02-03 16:46:00,
2013-02-03 11:51:00,22.0,17.1,29.87,ENE,69,0.0,2.0,81,0.00,,,0.00,VWS V14.01,2013-02-03 16:51:00,
2013-02-03 11:56:00,22.1,17.2,29.87,NE,50,0.0,2.0,81,0.00,,OVC065,0.00,VWS V14.01,2013-02-03 16:56:00,
2013-02-03 12:01:00,22.5,17.9,29.86,North,355,0.0,0.0,82,0.00,,OVC065,0.00,VWS V14.01,2013-02-03 17:01:00,
2013-02-03 12:06:00,23.0,18.3,29.86,ESE,120,0.0,2.0,82,0.00,,OVC065,0.00,VWS V14.01,2013-02-03 17:06:00,
2013-02-03 12:11:00,23.1,17.9,29.86,NE,54,1.0,3.0,80,0.00,,OVC065,0.00,VWS V14.01,2013-02-03 17:11:00,
2013-02-03 12:16:00,22.9,17.7,29.85,NE,47,1.0,1.0,80,0.00,,OVC065,0.00,VWS V14.01,2013-02-03 17:16:00,
2013-02-03 12:21:00,22.8,17.6,29.85,East,98,0.0,3.0,80,0.00,,OVC065,0.00,VWS V14.01,2013-02-03 17:21:00,
2013-02-03 12:26:00,22.8,17.3,29.85,SE,146,1.0,3.0,79,0.00,,OVC065,0.00,VWS V14.01,2013-02-03 17:26:00,
2013-02-03 12:31:00,23.7,18.5,29.85,SSE,152,1.0,2.0,80,0.00,,OVC065,0.00,VWS V14.01,2013-02-03 17:31:00,
2013-02-03 12:36:00,25.3,19.7,29.84,WSW,252,1.0,2.0,79,0.00,,OVC065,0.00,VWS V14.01,2013-02-03 17:36:00,
2013-02-03 12:41:00,25.1,18.3,29.84,West,262,1.0,4.0,75,0.00,,OVC065,0.00,VWS V14.01,2013-02-03 17:41:00,
2013-02-03 12:46:00,25.0,18.8,29.83,SSW,203,0.0,0.0,77,0.00,,OVC065,0.00,VWS V14.01,2013-02-03 17:46:00,
2013-02-03 12:51:00,26.9,20.4,29.83,SW,224,0.0,3.0,76,0.00,,OVC065,0.00,VWS V14.01,2013-02-03 17:51:00,
2013-02-03 12:56:00,27.8,20.0,29.83,West,260,1.0,4.0,72,0.00,,OVC065,0.00,VWS V14.01,2013-02-03 17:56:00,
2013-02-03 13:01:00,27.3,19.1,29.83,West,281,4.0,5.0,71,0.00,,OVC019,0.00,VWS V14.01,2013-02-03 18:01:00,
2013-02-03 13:06:00,26.2,19.1,29.82,SW,235,2.0,5.0,74,0.00,,OVC019,0.00,VWS V14.01,2013-02-03 18:06:00,
2013-02-03 13:11:00,25.7,18.6,29.82,WSW,255,0.0,5.0,74,0.00,,OVC019,0.00,VWS V14.01,2013-02-03 18:11:00,
2013-02-03 13:16:00,25.6,18.8,29.82,WNW,296,1.0,2.0,75,0.00,,OVC019,0.00,VWS V14.01,2013-02-03 18:16:00,
2013-02-03 13:21:00,25.4,18.6,29.82,NNE,23,0.0,3.0,75,0.00,,OVC019,0.00,VWS V14.01,2013-02-03 18:21:00,
2013-02-03 13:26:00,25.2,18.1,29.82,NW,321,2.0,4.0,74,0.00,,OVC019,0.00,VWS V14.01,2013-02-03 18:26:00,
2013-02-03 13:31:00,25.3,18.8,29.82,NW,304,3.0,3.0,76,0.00,,OVC019,0.00,VWS V14.01,2013-02-03 18:31:00,
2013-02-03 13:36:00,25.3,18.5,29.81,ENE,67,0.0,3.0,75,0.00,,OVC019,0.00,VWS V14.01,2013-02-03 18:36:00,
2013-02-03 13:41:00,25.7,18.6,29.81,WNW,296,0.0,4.0,74,0.00,,OVC019,0.00,VWS V14.01,2013-02-03 18:41:00,
2013-02-03 13:46:00,25.9,19.1,29.81,WSW,246,0.0,0.0,75,0.00,,OVC019,0.00,VWS V14.01,2013-02-03 18:46:00,
2013-02-03 13:51:00,25.8,18.7,29.81,NW,318,1.0,5.0,74,0.00,,OVC019,0.00,VWS V14.01,2013-02-03 18:51:00,
2013-02-03 13:56:00,25.7,18.9,29.80,NNW,342,0.0,5.0,75,0.00,,OVC019,0.00,VWS V14.01,2013-02-03 18:56:00,
2013-02-03 14:01:00,25.5,19.0,29.80,WNW,297,3.0,4.0,76,0.00,,OVC021,0.00,VWS V14.01,2013-02-03 19:01:00,
2013-02-03 14:06:00,25.0,18.2,29.80,West,280,3.0,6.0,75,0.00,,OVC021,0.00,VWS V14.01,2013-02-03 19:06:00,
2013-02-03 14:11:00,24.2,17.7,29.80,WNW,293,1.0,6.0,76,0.00,,OVC021,0.00,VWS V14.01,2013-02-03 19:11:00,
2013-02-03 14:16:00,24.3,18.4,29.80,East,79,0.0,0.0,78,0.00,,OVC021,0.00,VWS V14.01,2013-02-03 19:16:00,
2013-02-03 14:21:00,24.8,18.9,29.80,NW,318,0.0,3.0,78,0.00,,OVC021,0.00,VWS V14.01,2013-02-03 19:21:00,
2013-02-03 14:26:00,25.2,19.0,29.80,NNW,332,1.0,3.0,77,0.00,,OVC021,0.00,VWS V14.01,2013-02-03 19:26:00,
2013-02-03 14:31:00,25.4,18.9,29.80,NW,321,2.0,3.0,76,0.00,,OVC021,0.00,VWS V14.01,2013-02-03 19:31:00,
2013-02-03 14:36:00,25.7,19.2,29.79,WNW,289,1.0,3.0,76,0.00,,SCT023,0.00,VWS V14.01,2013-02-03 19:36:00,
2013-02-03 14:41:00,25.6,18.5,29.79,West,263,0.0,7.0,74,0.00,,SCT023,0.00,VWS V14.01,2013-02-03 19:41:00,
2013-02-03 14:46:00,25.9,19.1,29.79,NW,307,2.0,2.0,75,0.00,,SCT023,0.00,VWS V14.01,2013-02-03 19:46:00,
2013-02-03 14:51:00,25.9,18.8,29.79,NW,323,1.0,4.0,74,0.00,,SCT023,0.00,VWS V14.01,2013-02-03 19:51:00,
2013-02-03 14:56:00,26.3,19.1,29.79,WNW,288,3.0,4.0,74,0.00,,SCT023,0.00,VWS V14.01,2013-02-03 19:56:00,
2013-02-03 15:01:00,25.8,18.4,29.79,West,265,6.0,6.0,73,0.00,,CLR,0.00,VWS V14.01,2013-02-03 20:01:00,
2013-02-03 15:06:00,25.9,19.1,29.79,East,79,1.0,6.0,75,0.00,,CLR,0.00,VWS V14.01,2013-02-03 20:06:00,
2013-02-03 15:11:00,26.0,18.5,29.79,WNW,284,3.0,6.0,73,0.00,,CLR,0.00,VWS V14.01,2013-02-03 20:11:00,
2013-02-03 15:16:00,25.7,18.6,29.79,WNW,291,3.0,3.0,74,0.00,,CLR,0.00,VWS V14.01,2013-02-03 20:16:00,
2013-02-03 15:21:00,25.7,19.2,29.79,West,278,2.0,5.0,76,0.00,,CLR,0.00,VWS V14.01,2013-02-03 20:21:00,
2013-02-03 15:26:00,26.1,19.0,29.79,West,275,1.0,5.0,74,0.00,,CLR,0.00,VWS V14.01,2013-02-03 20:26:00,
2013-02-03 15:31:00,26.1,18.6,29.79,NNW,328,4.0,6.0,73,0.00,,CLR,0.00,VWS V14.01,2013-02-03 20:31:00,
2013-02-03 15:36:00,26.0,18.9,29.79,NW,321,0.0,6.0,74,0.00,,CLR,0.00,VWS V14.01,2013-02-03 20:36:00,
2013-02-03 15:41:00,26.4,18.9,29.79,NW,316,0.0,6.0,73,0.00,,CLR,0.00,VWS V14.01,2013-02-03 20:41:00,
2013-02-03 15:46:00,25.9,18.5,29.79,NNW,334,0.0,2.0,73,0.00,,CLR,0.00,VWS V14.01,2013-02-03 20:46:00,
2013-02-03 15:51:00,25.5,18.4,29.79,NNW,328,0.0,4.0,74,0.00,,CLR,0.00,VWS V14.01,2013-02-03 20:51:00,
2013-02-03 15:56:00,25.4,18.3,29.79,NNE,15,1.0,4.0,74,0.00,,CLR,0.00,VWS V14.01,2013-02-03 20:56:00,
2013-02-03 16:01:00,25.0,18.2,29.79,NNW,346,2.0,4.0,75,0.00,,FEW060,0.00,VWS V14.01,2013-02-03 21:01:00,
2013-02-03 16:06:00,24.7,18.2,29.79,NW,324,0.0,5.0,76,0.00,,FEW060,0.00,VWS V14.01,2013-02-03 21:06:00,
2013-02-03 16:11:00,24.8,18.6,29.79,NNW,334,0.0,5.0,77,0.00,,FEW060,0.00,VWS V14.01,2013-02-03 21:11:00,
2013-02-03 16:16:00,24.7,18.2,29.79,NW,322,1.0,1.0,76,0.00,,FEW060,0.00,VWS V14.01,2013-02-03 21:16:00,
2013-02-03 16:21:00,24.6,18.1,29.79,West,276,1.0,4.0,76,0.00,,FEW060,0.00,VWS V14.01,2013-02-03 21:21:00,
2013-02-03 16:26:00,24.5,18.0,29.79,NW,314,2.0,4.0,76,0.00,,FEW060,0.00,VWS V14.01,2013-02-03 21:26:00,
2013-02-03 16:31:00,24.4,17.9,29.79,North,352,0.0,0.0,76,0.00,,FEW060,0.00,VWS V14.01,2013-02-03 21:31:00,
2013-02-03 16:36:00,24.6,18.4,29.79,NNW,342,0.0,0.0,77,0.00,,FEW060,0.00,VWS V14.01,2013-02-03 21:36:00,
2013-02-03 16:41:00,24.3,17.8,29.79,NNW,334,2.0,3.0,76,0.00,,FEW060,0.00,VWS V14.01,2013-02-03 21:41:00,
2013-02-03 16:46:00,24.0,17.5,29.79,NNW,334,0.0,0.0,76,0.00,,FEW060,0.00,VWS V14.01,2013-02-03 21:46:00,
2013-02-03 16:51:00,23.9,17.8,29.78,North,352,1.0,3.0,77,0.00,,FEW060,0.00,VWS V14.01,2013-02-03 21:51:00,
2013-02-03 16:56:00,23.7,17.6,29.78,NNE,13,0.0,3.0,77,0.00,,FEW060,0.00,VWS V14.01,2013-02-03 21:56:00,
2013-02-03 17:01:00,23.5,17.1,29.79,WSW,240,0.0,3.0,76,0.00,,OVC075,0.00,VWS V14.01,2013-02-03 22:01:00,
2013-02-03 17:06:00,23.2,17.1,29.79,NW,311,0.0,3.0,77,0.00,,OVC075,0.00,VWS V14.01,2013-02-03 22:06:00,
2013-02-03 17:11:00,22.9,16.8,29.79,NNE,19,0.0,3.0,77,0.00,,OVC075,0.00,VWS V14.01,2013-02-03 22:11:00,
2013-02-03 17:16:00,22.7,16.9,29.79,NW,321,0.0,1.0,78,0.00,,OVC075,0.00,VWS V14.01,2013-02-03 22:16:00,
2013-02-03 17:21:00,22.5,16.7,29.79,NNE,14,0.0,1.0,78,0.00,,OVC075,0.00,VWS V14.01,2013-02-03 22:21:00,
2013-02-03 17:26:00,22.2,16.7,29.79,WNW,291,0.0,1.0,79,0.00,,OVC075,0.00,VWS V14.01,2013-02-03 22:26:00,
2013-02-03 17:31:00,21.9,16.4,29.79,WNW,291,0.0,0.0,79,0.00,,OVC075,0.00,VWS V14.01,2013-02-03 22:31:00,
2013-02-03 17:36:00,21.5,16.3,29.79,WNW,291,0.0,0.0,80,0.00,,OVC075,0.00,VWS V14.01,2013-02-03 22:36:00,
2013-02-03 17:41:00,21.3,16.4,29.79,WNW,291,0.0,0.0,81,0.00,,OVC075,0.00,VWS V14.01,2013-02-03 22:41:00,
2013-02-03 17:46:00,21.1,16.2,29.79,WNW,291,0.0,0.0,81,0.00,,OVC075,0.00,VWS V14.01,2013-02-03 22:46:00,
2013-02-03 17:51:00,20.9,16.0,29.79,WNW,291,0.0,0.0,81,0.00,,OVC075,0.00,VWS V14.01,2013-02-03 22:51:00,
2013-02-03 17:56:00,20.7,16.1,29.79,WNW,291,0.0,0.0,82,0.00,,OVC075,0.00,VWS V14.01,2013-02-03 22:56:00,
2013-02-03 18:01:00,20.6,16.0,29.78,WNW,291,0.0,0.0,82,0.00,,CLR,0.00,VWS V14.01,2013-02-03 23:01:00,
2013-02-03 18:06:00,20.5,15.9,29.79,WNW,291,0.0,0.0,82,0.00,,CLR,0.00,VWS V14.01,2013-02-03 23:06:00,
2013-02-03 18:11:00,20.4,16.1,29.79,WNW,291,0.0,0.0,83,0.00,,CLR,0.00,VWS V14.01,2013-02-03 23:11:00,
2013-02-03 18:16:00,20.2,15.9,29.79,WNW,290,0.0,0.0,83,0.00,,CLR,0.00,VWS V14.01,2013-02-03 23:16:00,
2013-02-03 18:21:00,20.2,15.9,29.79,WNW,291,0.0,0.0,83,0.00,,CLR,0.00,VWS V14.01,2013-02-03 23:21:00,
2013-02-03 18:26:00,20.2,16.1,29.79,WNW,291,0.0,0.0,84,0.00,,CLR,0.00,VWS V14.01,2013-02-03 23:26:00,
2013-02-03 18:31:00,20.3,16.0,29.79,WNW,291,0.0,0.0,83,0.00,,CLR,0.00,VWS V14.01,2013-02-03 23:31:00,
2013-02-03 18:36:00,20.3,16.2,29.79,WNW,291,0.0,0.0,84,0.00,,CLR,0.00,VWS V14.01,2013-02-03 23:36:00,
2013-02-03 18:41:00,20.4,16.4,29.80,WNW,291,0.0,0.0,84,0.00,,CLR,0.00,VWS V14.01,2013-02-03 23:41:00,
2013-02-03 18:46:00,20.4,16.4,29.80,WNW,290,0.0,0.0,84,0.00,,CLR,0.00,VWS V14.01,2013-02-03 23:46:00,
2013-02-03 18:51:00,20.2,16.1,29.80,WNW,291,0.0,0.0,84,0.00,,CLR,0.00,VWS V14.01,2013-02-03 23:51:00,
2013-02-03 18:56:00,20.1,16.0,29.80,WNW,291,0.0,1.0,84,0.00,,CLR,0.00,VWS V14.01,2013-02-03 23:56:00,
2013-02-03 19:01:00,20.1,16.3,29.80,WNW,291,0.0,0.0,85,0.00,,FEW060,0.00,VWS V14.01,2013-02-04 00:01:00,
2013-02-03 19:06:00,20.1,16.3,29.80,WNW,291,0.0,1.0,85,0.00,,FEW060,0.00,VWS V14.01,2013-02-04 00:06:00,
2013-02-03 19:11:00,20.0,16.2,29.80,WNW,291,0.0,1.0,85,0.00,,FEW060,0.00,VWS V14.01,2013-02-04 00:11:00,
2013-02-03 19:16:00,19.8,16.0,29.80,WNW,291,0.0,0.0,85,0.00,,FEW060,0.00,VWS V14.01,2013-02-04 00:16:00,
2013-02-03 19:21:00,19.6,15.8,29.80,WNW,291,0.0,0.0,85,0.00,,FEW060,0.00,VWS V14.01,2013-02-04 00:21:00,
2013-02-03 19:26:00,19.3,15.8,29.80,WNW,291,0.0,0.0,86,0.00,,FEW060,0.00,VWS V14.01,2013-02-04 00:26:00,
2013-02-03 19:31:00,19.2,15.7,29.80,WNW,291,0.0,0.0,86,0.00,,FEW060,0.00,VWS V14.01,2013-02-04 00:31:00,
2013-02-03 19:36:00,19.0,15.8,29.80,WNW,291,0.0,0.0,87,0.00,,FEW060,0.00,VWS V14.01,2013-02-04 00:36:00,
2013-02-03 19:41:00,19.0,15.8,29.80,WNW,291,0.0,0.0,87,0.00,,FEW060,0.00,VWS V14.01,2013-02-04 00:41:00,
2013-02-03 19:46:00,19.1,15.9,29.80,WNW,291,0.0,1.0,87,0.00,,FEW060,0.00,VWS V14.01,2013-02-04 00:46:00,
2013-02-03 19:51:00,19.1,15.9,29.80,WNW,291,0.0,1.0,87,0.00,,FEW060,0.00,VWS V14.01,2013-02-04 00:51:00,
2013-02-03 19:56:00,19.0,15.8,29.80,WNW,291,0.0,1.0,87,0.00,,FEW060,0.00,VWS V14.01,2013-02-04 00:56:00,
2013-02-03 20:01:00,18.9,15.9,29.80,WNW,291,0.0,0.0,88,0.00,,BKN055,0.00,VWS V14.01,2013-02-04 01:01:00,
2013-02-03 20:06:00,18.7,15.7,29.80,WNW,291,0.0,0.0,88,0.00,,BKN055,0.00,VWS V14.01,2013-02-04 01:06:00,
2013-02-03 20:11:00,18.5,15.6,29.80,WNW,291,0.0,0.0,88,0.00,,BKN055,0.00,VWS V14.01,2013-02-04 01:11:00,
2013-02-03 20:16:00,18.1,15.1,29.80,WNW,291,0.0,0.0,88,0.00,,BKN055,0.00,VWS V14.01,2013-02-04 01:16:00,
2013-02-03 20:21:00,17.8,15.1,29.80,WNW,291,0.0,0.0,89,0.00,,BKN055,0.00,VWS V14.01,2013-02-04 01:21:00,
2013-02-03 20:26:00,17.8,15.4,29.80,WNW,291,0.0,0.0,90,0.00,,BKN055,0.00,VWS V14.01,2013-02-04 01:26:00,
2013-02-03 20:31:00,17.8,15.4,29.80,WNW,291,0.0,0.0,90,0.00,,BKN055,0.00,VWS V14.01,2013-02-04 01:31:00,
2013-02-03 20:36:00,17.6,15.2,29.80,WNW,291,0.0,0.0,90,0.00,,BKN055,0.00,VWS V14.01,2013-02-04 01:36:00,
2013-02-03 20:41:00,17.6,15.2,29.80,WNW,291,0.0,0.0,90,0.00,,BKN055,0.00,VWS V14.01,2013-02-04 01:41:00,
2013-02-03 20:46:00,17.7,15.5,29.80,WNW,291,0.0,1.0,91,0.00,,BKN055,0.00,VWS V14.01,2013-02-04 01:46:00,
2013-02-03 20:51:00,17.7,15.5,29.80,WNW,291,0.0,1.0,91,0.00,,BKN055,0.00,VWS V14.01,2013-02-04 01:51:00,
2013-02-03 20:56:00,17.7,15.5,29.80,WNW,291,0.0,1.0,91,0.00,,BKN055,0.00,VWS V14.01,2013-02-04 01:56:00,
2013-02-03 21:01:00,17.5,15.3,29.80,WNW,291,0.0,0.0,91,0.00,,OVC070,0.00,VWS V14.01,2013-02-04 02:01:00,
2013-02-03 21:06:00,17.3,15.1,29.80,WNW,291,0.0,0.0,91,0.00,,OVC070,0.00,VWS V14.01,2013-02-04 02:06:00,
2013-02-03 21:11:00,17.4,15.5,29.80,WNW,291,0.0,0.0,92,0.00,,OVC070,0.00,VWS V14.01,2013-02-04 02:11:00,
2013-02-03 21:16:00,17.4,15.5,29.80,WNW,291,0.0,0.0,92,0.00,,OVC070,0.00,VWS V14.01,2013-02-04 02:16:00,
2013-02-03 21:21:00,17.4,15.5,29.80,WNW,291,0.0,0.0,92,0.00,,OVC070,0.00,VWS V14.01,2013-02-04 02:21:00,
2013-02-03 21:26:00,17.6,15.7,29.80,WNW,291,0.0,0.0,92,0.00,,OVC070,0.00,VWS V14.01,2013-02-04 02:26:00,
2013-02-03 21:31:00,17.5,15.6,29.80,WNW,291,0.0,0.0,92,0.00,,OVC070,0.00,VWS V14.01,2013-02-04 02:31:00,
2013-02-03 21:36:00,17.5,15.6,29.79,WNW,291,0.0,0.0,92,0.00,,OVC070,0.00,VWS V14.01,2013-02-04 02:36:00,
2013-02-03 21:41:00,17.5,15.6,29.79,WNW,291,0.0,0.0,92,0.00,,OVC070,0.00,VWS V14.01,2013-02-04 02:41:00,
2013-02-03 21:46:00,17.5,15.6,29.79,WNW,291,0.0,0.0,92,0.00,,OVC070,0.00,VWS V14.01,2013-02-04 02:46:00,
2013-02-03 21:51:00,17.5,15.6,29.79,WNW,291,0.0,0.0,92,0.00,,OVC070,0.00,VWS V14.01,2013-02-04 02:51:00,
2013-02-03 21:56:00,18.6,16.4,29.79,West,264,0.0,1.0,91,0.00,,OVC070,0.00,VWS V14.01,2013-02-04 02:56:00,
2013-02-03 22:01:00,18.8,16.6,29.79,West,271,0.0,0.0,91,0.00,,,0.00,VWS V14.01,2013-02-04 03:01:00,
2013-02-03 22:06:00,18.6,16.2,29.79,West,271,0.0,0.0,90,0.00,,,0.00,VWS V14.01,2013-02-04 03:06:00,
2013-02-03 22:11:00,18.2,15.8,29.79,West,271,0.0,0.0,90,0.00,,,0.00,VWS V14.01,2013-02-04 03:11:00,
2013-02-03 22:16:00,17.9,15.5,29.79,West,271,0.0,0.0,90,0.00,,,0.00,VWS V14.01,2013-02-04 03:16:00,
2013-02-03 22:21:00,18.0,15.8,29.79,WSW,250,0.0,2.0,91,0.00,,,0.00,VWS V14.01,2013-02-04 03:21:00,
2013-02-03 22:26:00,18.2,16.3,29.79,WSW,253,0.0,2.0,92,0.00,,,0.00,VWS V14.01,2013-02-04 03:26:00,
2013-02-03 22:31:00,18.4,16.5,29.79,West,260,0.0,1.0,92,0.00,,,0.00,VWS V14.01,2013-02-04 03:31:00,
2013-02-03 22:36:00,18.6,16.7,29.79,NNW,342,0.0,1.0,92,0.00,,,0.00,VWS V14.01,2013-02-04 03:36:00,
2013-02-03 22:41:00,18.8,16.9,29.79,WNW,288,0.0,1.0,92,0.00,,,0.00,VWS V14.01,2013-02-04 03:41:00,
2013-02-03 22:46:00,19.0,17.1,29.79,West,264,0.0,1.0,92,0.00,,,0.00,VWS V14.01,2013-02-04 03:46:00,
2013-02-03 22:51:00,19.4,17.5,29.79,WSW,240,0.0,3.0,92,0.00,,,0.00,VWS V14.01,2013-02-04 03:51:00,
2013-02-03 22:56:00,19.7,17.8,29.79,WNW,290,2.0,3.0,92,0.00,,,0.00,VWS V14.01,2013-02-04 03:56:00,
2013-02-03 23:01:00,20.0,18.0,29.79,West,264,0.0,1.0,92,0.00,,OVC060,0.00,VWS V14.01,2013-02-04 04:01:00,
2013-02-03 23:06:00,20.2,18.2,29.79,WSW,252,0.0,1.0,92,0.00,,OVC060,0.00,VWS V14.01,2013-02-04 04:06:00,
2013-02-03 23:11:00,20.3,18.4,29.79,West,273,0.0,2.0,92,0.00,,OVC060,0.00,VWS V14.01,2013-02-04 04:11:00,
2013-02-03 23:16:00,20.5,18.8,29.79,WNW,283,2.0,2.0,93,0.00,,OVC060,0.00,VWS V14.01,2013-02-04 04:16:00,
2013-02-03 23:21:00,20.7,19.0,29.79,WNW,301,0.0,4.0,93,0.00,,OVC060,0.00,VWS V14.01,2013-02-04 04:21:00,
2013-02-03 23:26:00,20.8,19.1,29.79,NW,311,3.0,5.0,93,0.00,,OVC060,0.00,VWS V14.01,2013-02-04 04:26:00,
2013-02-03 23:31:00,20.9,19.2,29.79,WSW,245,1.0,3.0,93,0.00,,OVC060,0.00,VWS V14.01,2013-02-04 04:31:00,
2013-02-03 23:36:00,20.9,19.0,29.79,NW,309,3.0,8.0,92,0.00,,OVC060,0.00,VWS V14.01,2013-02-04 04:36:00,
2013-02-03 23:41:00,20.9,19.0,29.79,West,274,1.0,8.0,92,0.00,,OVC060,0.00,VWS V14.01,2013-02-04 04:41:00,
2013-02-03 23:46:00,20.9,19.0,29.80,WNW,296,1.0,4.0,92,0.00,,OVC060,0.00,VWS V14.01,2013-02-04 04:46:00,
2013-02-03 23:51:00,20.8,18.9,29.80,WSW,250,2.0,6.0,92,0.00,,OVC060,0.00,VWS V14.01,2013-02-04 04:51:00,
2013-02-03 23:56:00,20.7,18.8,29.80,North,352,3.0,7.0,92,0.00,,OVC060,0.00,VWS V14.01,2013-02-04 04:56:00,